Time;durP1;ratioP1;P1;durP2;ratioP2;P2;SDS_P1;SDS_P2;PMS_P1;PMS_P2;Temp;Humidity;BMP_temperature;BMP_pressure;BME280_temperature;BME280_humidity;BME280_pressure;Samples;Min_cycle;Max_cycle;Signal;HPM_P1;HPM_P2
2021/12/31 00:02:20;;;;;;;7.10;3.10;;;19.20;91.20;;;;;;5104844;28;20523;-79
2021/12/31 00:04:49;;;;;;;5.77;2.93;;;19.30;91.10;;;;;;5109729;28;20467;-79
2021/12/31 00:07:17;;;;;;;8.13;2.37;;;19.40;90.70;;;;;;5109476;28;20493;-79
2021/12/31 00:09:45;;;;;;;2.63;2.40;;;19.30;90.30;;;;;;5104745;28;20916;-79
2021/12/31 00:12:13;;;;;;;6.57;2.50;;;19.40;90.20;;;;;;5105212;28;20472;-79
2021/12/31 00:14:43;;;;;;;3.50;2.20;;;19.40;90.00;;;;;;5104339;28;20441;-79
2021/12/31 00:17:11;;;;;;;6.30;2.23;;;19.40;89.50;;;;;;5109134;28;20446;-79
2021/12/31 00:19:44;;;;;;;6.00;2.20;;;19.40;89.10;;;;;;5100634;28;20573;-79
2021/12/31 00:22:37;;;;;;;4.13;2.10;;;19.40;88.60;;;;;;5110030;28;20440;-83
2021/12/31 00:25:06;;;;;;;5.23;2.37;;;19.40;88.00;;;;;;5105810;28;20566;-80
2021/12/31 00:27:34;;;;;;;3.37;1.90;;;19.50;87.90;;;;;;5118059;28;20523;-80
2021/12/31 00:30:04;;;;;;;4.43;1.90;;;19.50;87.60;;;;;;5117525;28;20452;-80
2021/12/31 00:32:31;;;;;;;3.10;2.10;;;19.50;87.10;;;;;;5118122;28;20491;-80
2021/12/31 00:34:59;;;;;;;3.97;2.27;;;19.50;86.80;;;;;;5118460;28;20818;-80
2021/12/31 00:37:29;;;;;;;4.83;2.30;;;19.50;86.40;;;;;;5111887;28;20463;-80
2021/12/31 00:39:57;;;;;;;3.23;1.67;;;19.50;86.00;;;;;;5098026;28;20541;-80
2021/12/31 00:42:25;;;;;;;1.83;1.70;;;19.50;85.90;;;;;;5106338;28;20454;-80
2021/12/31 00:44:53;;;;;;;2.33;1.90;;;19.60;85.60;;;;;;5117521;28;20483;-80
2021/12/31 00:47:22;;;;;;;5.63;2.20;;;19.60;85.30;;;;;;5117249;28;20464;-80
2021/12/31 00:49:53;;;;;;;3.20;1.60;;;19.60;85.10;;;;;;5117616;28;20459;-80
2021/12/31 00:52:21;;;;;;;5.30;1.83;;;19.60;84.80;;;;;;5117954;28;20471;-80
2021/12/31 00:54:49;;;;;;;1.97;1.87;;;19.60;84.80;;;;;;5117775;28;20508;-80
2021/12/31 00:57:17;;;;;;;3.20;1.90;;;19.60;84.50;;;;;;5117762;28;20428;-80
2021/12/31 00:59:45;;;;;;;4.10;1.73;;;19.60;84.20;;;;;;5118012;28;20524;-80
2021/12/31 01:02:16;;;;;;;2.60;1.60;;;19.60;84.10;;;;;;5117144;28;20467;-80
2021/12/31 01:04:45;;;;;;;3.37;2.07;;;19.60;83.80;;;;;;5118031;28;20478;-80
2021/12/31 01:07:13;;;;;;;3.00;2.00;;;19.60;83.70;;;;;;5117872;28;20436;-80
2021/12/31 01:09:41;;;;;;;2.73;1.93;;;19.60;83.60;;;;;;5117646;28;20439;-80
2021/12/31 01:12:13;;;;;;;5.47;1.83;;;19.60;83.40;;;;;;5121413;28;20423;-81
2021/12/31 01:14:52;;;;;;;5.67;1.77;;;19.70;83.30;;;;;;5121616;28;20486;-80
2021/12/31 01:17:26;;;;;;;5.40;2.07;;;19.60;82.90;;;;;;5121375;28;20486;-80
2021/12/31 01:19:55;;;;;;;2.20;1.73;;;19.60;82.90;;;;;;5121145;28;20487;-80
2021/12/31 01:22:28;;;;;;;4.03;1.77;;;19.60;82.70;;;;;;5121557;28;20479;-80
2021/12/31 01:24:56;;;;;;;3.33;1.40;;;19.60;82.50;;;;;;5120895;28;20539;-80
2021/12/31 01:27:24;;;;;;;2.93;1.63;;;19.60;82.40;;;;;;5120591;28;20503;-80
2021/12/31 01:29:52;;;;;;;2.83;1.73;;;19.60;82.30;;;;;;5121224;28;20440;-78
2021/12/31 01:32:37;;;;;;;2.70;1.67;;;19.70;82.20;;;;;;5096831;28;20476;-79
2021/12/31 01:35:06;;;;;;;3.27;1.83;;;19.60;82.20;;;;;;5106712;28;20557;-79
2021/12/31 01:37:34;;;;;;;3.93;1.60;;;19.60;81.90;;;;;;5118529;28;20522;-79
2021/12/31 01:40:02;;;;;;;4.20;1.93;;;19.60;82.00;;;;;;5118373;28;20530;-81
2021/12/31 01:42:32;;;;;;;3.30;1.80;;;19.70;81.90;;;;;;5122335;28;20443;-82
2021/12/31 01:45:04;;;;;;;7.03;1.73;;;19.60;81.60;;;;;;5117382;28;20452;-83
2021/12/31 01:47:46;;;;;;;3.40;1.53;;;19.60;81.60;;;;;;5113465;28;20427;-80
2021/12/31 01:50:15;;;;;;;7.17;2.10;;;19.70;81.40;;;;;;5109369;28;20536;-78
2021/12/31 01:52:46;;;;;;;4.20;1.60;;;19.70;81.40;;;;;;5117365;28;20444;-78
2021/12/31 01:55:15;;;;;;;2.77;1.77;;;19.70;81.20;;;;;;5115725;28;20475;-78
2021/12/31 01:57:43;;;;;;;1.90;1.27;;;19.70;81.20;;;;;;5116446;28;20511;-78
2021/12/31 02:00:12;;;;;;;3.67;1.70;;;19.70;81.00;;;;;;5116163;28;20491;-79
2021/12/31 02:02:42;;;;;;;2.80;1.70;;;19.70;81.00;;;;;;5117326;28;20512;-79
2021/12/31 02:05:11;;;;;;;3.00;1.57;;;19.70;81.00;;;;;;5117340;28;20463;-78
2021/12/31 02:07:40;;;;;;;1.97;1.63;;;19.70;81.00;;;;;;5116855;28;20447;-79
2021/12/31 02:10:09;;;;;;;2.33;1.80;;;19.70;80.60;;;;;;5116372;28;20460;-78
2021/12/31 02:12:44;;;;;;;6.97;1.90;;;19.70;80.60;;;;;;5117114;28;20535;-80
2021/12/31 02:15:12;;;;;;;3.77;1.60;;;19.70;80.70;;;;;;5120805;28;20531;-79
2021/12/31 02:17:41;;;;;;;3.23;1.80;;;19.70;80.40;;;;;;5119101;28;20530;-78
2021/12/31 02:20:11;;;;;;;3.07;1.30;;;19.70;80.40;;;;;;5116564;28;20493;-78
2021/12/31 02:22:39;;;;;;;2.97;1.60;;;19.70;80.30;;;;;;5116737;28;20507;-79
2021/12/31 02:25:08;;;;;;;2.60;1.70;;;19.70;80.30;;;;;;5118122;28;20474;-79
2021/12/31 02:27:37;;;;;;;9.17;2.17;;;19.70;80.20;;;;;;5118569;28;20527;-79
2021/12/31 02:30:06;;;;;;;3.83;1.80;;;19.70;80.20;;;;;;5117530;28;20534;-79
2021/12/31 02:32:34;;;;;;;3.57;1.60;;;19.70;80.10;;;;;;5114724;28;21054;-79
2021/12/31 02:35:02;;;;;;;3.20;1.77;;;19.70;79.80;;;;;;5108532;28;20471;-79
2021/12/31 02:37:32;;;;;;;4.40;1.97;;;19.70;79.80;;;;;;5116305;28;20443;-78
2021/12/31 02:40:02;;;;;;;2.50;1.47;;;19.70;79.70;;;;;;5109021;28;20448;-78
2021/12/31 02:42:29;;;;;;;2.70;1.47;;;19.70;80.40;;;;;;5116463;28;20535;-79
2021/12/31 02:44:58;;;;;;;3.40;1.57;;;19.70;79.70;;;;;;5113510;28;20472;-78
2021/12/31 02:47:27;;;;;;;3.27;2.00;;;19.80;79.60;;;;;;5115068;28;20462;-78
2021/12/31 02:49:55;;;;;;;1.70;1.60;;;19.80;79.50;;;;;;5116536;28;20529;-78
2021/12/31 02:52:23;;;;;;;4.40;1.40;;;19.70;79.20;;;;;;5116531;28;20470;-78
2021/12/31 02:54:52;;;;;;;3.63;1.63;;;19.70;79.30;;;;;;5116542;28;20552;-77
2021/12/31 02:57:21;;;;;;;4.83;2.13;;;19.80;79.30;;;;;;5114598;28;20464;-78
2021/12/31 02:59:49;;;;;;;5.17;1.83;;;19.70;79.20;;;;;;5114583;28;20479;-78
2021/12/31 03:02:23;;;;;;;4.57;2.20;;;19.70;79.10;;;;;;5116415;28;20516;-78
2021/12/31 03:04:51;;;;;;;3.23;1.77;;;19.70;79.10;;;;;;5111311;28;20435;-78
2021/12/31 03:07:20;;;;;;;2.03;1.80;;;19.80;79.90;;;;;;5116616;28;20543;-78
2021/12/31 03:09:49;;;;;;;3.87;1.60;;;19.80;78.90;;;;;;5116797;28;20479;-78
2021/12/31 03:12:18;;;;;;;1.80;1.63;;;19.80;78.90;;;;;;5116657;28;20507;-78
2021/12/31 03:14:48;;;;;;;2.80;1.93;;;19.80;78.80;;;;;;5116790;28;20483;-78
2021/12/31 03:17:31;;;;;;;3.83;1.63;;;19.80;78.80;;;;;;5116668;28;20462;-78
2021/12/31 03:20:10;;;;;;;3.73;1.97;;;19.70;78.60;;;;;;5116235;28;20462;-78
2021/12/31 03:22:37;;;;;;;6.63;1.90;;;19.70;78.70;;;;;;5116772;28;20492;-79
2021/12/31 03:25:07;;;;;;;5.87;1.63;;;19.80;78.70;;;;;;5116338;28;20452;-78
2021/12/31 03:27:36;;;;;;;1.53;1.30;;;19.70;78.50;;;;;;5116076;28;20477;-78
2021/12/31 03:30:04;;;;;;;2.90;1.43;;;19.80;78.50;;;;;;5116496;28;20586;-78
2021/12/31 03:32:32;;;;;;;5.37;1.80;;;19.70;78.50;;;;;;5116594;28;20530;-78
2021/12/31 03:35:00;;;;;;;3.50;1.47;;;19.70;78.40;;;;;;5115456;28;20468;-78
2021/12/31 03:37:28;;;;;;;6.33;1.77;;;19.80;78.50;;;;;;5115920;28;20531;-79
2021/12/31 03:39:56;;;;;;;1.57;1.37;;;19.80;78.50;;;;;;5115417;28;20435;-78
2021/12/31 03:42:24;;;;;;;6.87;1.93;;;19.80;78.30;;;;;;5115981;28;20835;-78
2021/12/31 03:44:53;;;;;;;4.53;1.80;;;19.80;78.10;;;;;;5115940;28;21049;-78
2021/12/31 03:47:21;;;;;;;2.20;1.40;;;19.80;78.20;;;;;;5116015;28;20448;-78
2021/12/31 03:49:49;;;;;;;5.60;1.87;;;19.80;78.00;;;;;;5115774;28;20558;-78
2021/12/31 03:52:17;;;;;;;4.00;2.00;;;19.80;78.20;;;;;;5116768;28;20436;-78
2021/12/31 03:54:45;;;;;;;4.13;1.57;;;19.80;78.00;;;;;;5115561;28;20493;-78
2021/12/31 03:57:13;;;;;;;6.70;1.70;;;19.80;78.00;;;;;;5116062;28;20444;-78
2021/12/31 03:59:41;;;;;;;2.90;1.60;;;19.80;78.00;;;;;;5116043;28;20467;-78
2021/12/31 04:02:11;;;;;;;2.80;1.70;;;19.80;77.90;;;;;;5116026;28;20464;-78
2021/12/31 04:04:39;;;;;;;2.70;1.60;;;19.80;77.80;;;;;;5115961;28;20464;-78
2021/12/31 04:07:07;;;;;;;2.80;1.43;;;19.80;77.70;;;;;;5116052;28;20446;-78
2021/12/31 04:09:35;;;;;;;2.10;1.50;;;19.80;77.70;;;;;;5116884;28;20463;-78
2021/12/31 04:12:03;;;;;;;2.03;1.80;;;19.80;77.60;;;;;;5117665;28;20474;-79
2021/12/31 04:14:31;;;;;;;4.20;1.90;;;19.90;77.70;;;;;;5116314;28;20523;-78
2021/12/31 04:16:59;;;;;;;2.43;1.90;;;19.80;77.40;;;;;;5116359;28;20461;-78
2021/12/31 04:19:28;;;;;;;3.83;1.93;;;19.80;77.50;;;;;;5116275;28;20511;-78
2021/12/31 04:21:56;;;;;;;3.30;1.77;;;19.80;77.40;;;;;;5116888;28;20524;-78
2021/12/31 04:24:40;;;;;;;3.80;2.00;;;19.80;77.40;;;;;;5115849;28;20447;-78
2021/12/31 04:27:08;;;;;;;2.33;1.87;;;19.80;77.30;;;;;;5116330;28;20491;-78
2021/12/31 04:29:36;;;;;;;2.40;1.73;;;19.80;77.20;;;;;;5115442;28;20464;-78
2021/12/31 04:32:05;;;;;;;2.83;1.80;;;19.80;78.00;;;;;;5115148;28;20474;-78
2021/12/31 04:34:34;;;;;;;2.90;2.23;;;19.80;77.20;;;;;;5115199;28;20535;-78
2021/12/31 04:37:03;;;;;;;3.03;2.07;;;19.80;77.00;;;;;;5115126;28;20527;-78
2021/12/31 04:39:30;;;;;;;2.23;2.03;;;19.90;77.80;;;;;;5115449;28;20531;-79
2021/12/31 04:41:58;;;;;;;2.03;1.67;;;19.80;76.90;;;;;;5115869;28;20849;-79
2021/12/31 04:44:27;;;;;;;2.40;2.07;;;19.90;77.10;;;;;;5116152;28;20479;-78
2021/12/31 04:46:55;;;;;;;2.90;2.10;;;19.90;76.90;;;;;;5119630;28;20432;-78
2021/12/31 04:49:23;;;;;;;3.70;2.20;;;19.90;76.80;;;;;;5120219;28;20506;-78
2021/12/31 04:51:52;;;;;;;2.80;1.80;;;19.80;76.90;;;;;;5120156;28;20471;-78
2021/12/31 04:54:21;;;;;;;2.23;1.70;;;19.90;76.80;;;;;;5119635;28;20542;-78
2021/12/31 04:56:52;;;;;;;2.20;2.00;;;19.90;76.80;;;;;;5119414;28;20489;-78
2021/12/31 04:59:20;;;;;;;2.90;2.10;;;19.90;76.70;;;;;;5119473;28;20418;-78
2021/12/31 05:01:53;;;;;;;2.13;1.93;;;19.90;76.60;;;;;;5109707;28;20460;-78
2021/12/31 05:04:21;;;;;;;3.57;1.80;;;19.90;76.60;;;;;;5118921;28;20452;-78
2021/12/31 05:06:50;;;;;;;2.73;1.83;;;19.90;76.60;;;;;;5118640;28;20972;-78
2021/12/31 05:09:19;;;;;;;2.90;2.03;;;19.90;76.50;;;;;;5118988;28;20455;-78
2021/12/31 05:11:47;;;;;;;2.10;1.70;;;19.90;76.40;;;;;;5118872;28;20462;-78
2021/12/31 05:14:15;;;;;;;3.83;2.20;;;19.90;76.40;;;;;;5104573;28;20898;-78
2021/12/31 05:16:43;;;;;;;4.10;2.23;;;19.90;76.40;;;;;;5098782;28;20543;-78
2021/12/31 05:19:11;;;;;;;3.13;1.97;;;19.90;76.40;;;;;;5119591;28;20810;-80
2021/12/31 05:21:39;;;;;;;1.87;1.77;;;19.90;76.40;;;;;;5118934;28;20984;-78
2021/12/31 05:24:08;;;;;;;2.90;2.00;;;20.00;76.40;;;;;;5119157;28;20527;-78
2021/12/31 05:26:37;;;;;;;2.83;2.10;;;19.90;76.30;;;;;;5119407;28;20526;-78
2021/12/31 05:29:05;;;;;;;2.20;1.83;;;19.90;76.30;;;;;;5119340;28;20519;-78
2021/12/31 05:31:33;;;;;;;1.87;1.70;;;19.90;76.10;;;;;;5119351;28;20515;-78
2021/12/31 05:34:00;;;;;;;2.43;2.03;;;19.90;76.10;;;;;;5118000;28;20472;-78
2021/12/31 05:36:28;;;;;;;1.87;1.77;;;19.90;76.10;;;;;;5119381;28;20470;-78
2021/12/31 05:38:56;;;;;;;6.07;2.17;;;19.90;76.10;;;;;;5119163;28;20452;-78
2021/12/31 05:41:24;;;;;;;3.40;2.20;;;20.00;76.20;;;;;;5119761;28;20475;-78
2021/12/31 05:43:53;;;;;;;2.50;1.87;;;20.00;76.00;;;;;;5119884;28;20496;-78
2021/12/31 05:46:21;;;;;;;4.80;2.03;;;20.00;76.00;;;;;;5119716;28;20530;-78
2021/12/31 05:48:51;;;;;;;1.93;1.80;;;19.90;75.90;;;;;;5119069;28;20511;-78
2021/12/31 05:51:19;;;;;;;1.90;1.80;;;19.90;75.90;;;;;;5118834;28;20460;-78
2021/12/31 05:53:47;;;;;;;1.90;1.80;;;20.00;76.00;;;;;;5118948;28;20459;-78
2021/12/31 05:56:17;;;;;;;4.70;1.97;;;19.90;75.70;;;;;;5119420;28;20441;-78
2021/12/31 05:58:44;;;;;;;1.90;1.80;;;19.90;75.80;;;;;;5118597;28;20501;-79
2021/12/31 06:01:14;;;;;;;2.60;1.87;;;20.00;75.80;;;;;;5120712;28;20504;-79
2021/12/31 06:03:42;;;;;;;2.03;1.93;;;20.00;75.70;;;;;;5120551;28;20563;-78
2021/12/31 06:06:10;;;;;;;1.97;1.87;;;20.00;75.80;;;;;;5118994;28;20462;-79
2021/12/31 06:08:38;;;;;;;2.67;2.13;;;19.90;75.70;;;;;;5119308;28;20436;-79
2021/12/31 06:11:06;;;;;;;2.67;2.00;;;20.00;75.70;;;;;;5119700;28;20538;-79
2021/12/31 06:13:34;;;;;;;1.97;1.87;;;20.00;75.70;;;;;;5118987;28;20440;-79
2021/12/31 06:16:02;;;;;;;2.40;1.57;;;20.00;75.60;;;;;;5118853;28;20472;-79
2021/12/31 06:18:32;;;;;;;2.57;2.20;;;20.00;75.60;;;;;;5118741;28;20419;-79
2021/12/31 06:20:59;;;;;;;1.73;1.60;;;20.00;75.60;;;;;;5118051;28;20543;-79
2021/12/31 06:23:28;;;;;;;2.60;1.83;;;20.00;75.60;;;;;;5118397;28;20483;-79
2021/12/31 06:25:56;;;;;;;3.60;2.10;;;20.00;75.60;;;;;;5118388;28;21002;-79
2021/12/31 06:28:24;;;;;;;3.37;2.30;;;20.00;75.50;;;;;;5118413;28;20443;-79
2021/12/31 06:30:52;;;;;;;2.23;2.00;;;20.00;75.50;;;;;;5118728;28;20460;-79
2021/12/31 06:33:20;;;;;;;2.17;1.97;;;20.00;75.40;;;;;;5118561;28;20518;-79
2021/12/31 06:35:50;;;;;;;2.33;1.67;;;20.00;75.40;;;;;;5118124;28;20460;-79
2021/12/31 06:38:18;;;;;;;2.17;1.93;;;20.00;75.50;;;;;;5118802;28;20446;-79
2021/12/31 06:40:47;;;;;;;1.80;1.70;;;20.00;75.40;;;;;;5117891;28;20564;-79
2021/12/31 06:43:15;;;;;;;1.90;1.80;;;20.00;75.30;;;;;;5117631;28;21046;-79
2021/12/31 06:45:43;;;;;;;1.80;1.70;;;20.00;75.40;;;;;;5117856;28;20460;-79
2021/12/31 06:48:11;;;;;;;1.67;1.60;;;20.00;75.40;;;;;;5117931;28;20459;-79
2021/12/31 06:50:39;;;;;;;2.13;1.93;;;20.00;75.40;;;;;;5117273;28;20994;-79
2021/12/31 06:53:09;;;;;;;1.77;1.67;;;20.00;75.30;;;;;;5118040;28;20435;-80
2021/12/31 06:55:37;;;;;;;2.00;1.80;;;20.00;75.30;;;;;;5117962;28;20530;-79
2021/12/31 06:58:05;;;;;;;3.30;2.00;;;20.00;75.30;;;;;;5117888;28;20500;-79
2021/12/31 07:00:33;;;;;;;2.60;2.03;;;20.00;75.20;;;;;;5117403;28;20479;-79
2021/12/31 07:03:06;;;;;;;2.17;2.00;;;20.00;75.10;;;;;;5117317;28;20554;-79
2021/12/31 07:05:34;;;;;;;2.37;2.17;;;20.00;75.70;;;;;;5117352;28;20513;-79
2021/12/31 07:08:02;;;;;;;1.80;1.70;;;20.00;75.10;;;;;;5117688;28;20538;-79
2021/12/31 07:10:34;;;;;;;2.57;1.87;;;20.00;75.10;;;;;;5117830;28;20958;-79
2021/12/31 07:13:04;;;;;;;2.20;2.00;;;20.00;75.10;;;;;;5117672;28;20867;-79
2021/12/31 07:15:33;;;;;;;2.10;1.90;;;20.00;75.10;;;;;;5116807;28;20511;-79
2021/12/31 07:18:01;;;;;;;2.20;2.00;;;20.00;75.20;;;;;;5117744;28;20428;-79
2021/12/31 07:20:29;;;;;;;2.37;1.90;;;20.00;75.10;;;;;;5117560;28;20581;-79
2021/12/31 07:22:56;;;;;;;2.30;2.10;;;20.00;75.00;;;;;;5117078;28;20511;-79
2021/12/31 07:25:24;;;;;;;2.23;2.00;;;20.00;75.00;;;;;;5116866;28;20464;-79
2021/12/31 07:27:54;;;;;;;1.87;1.60;;;20.00;75.00;;;;;;5117163;28;20942;-79
2021/12/31 07:30:22;;;;;;;1.60;1.50;;;20.00;75.00;;;;;;5117196;28;20501;-79
2021/12/31 07:32:50;;;;;;;2.00;1.90;;;20.00;74.90;;;;;;5116169;28;20539;-79
2021/12/31 07:35:18;;;;;;;2.20;2.00;;;20.00;74.90;;;;;;5096559;28;20530;-79
2021/12/31 07:37:46;;;;;;;1.60;1.50;;;20.00;75.00;;;;;;5113621;28;20431;-79
2021/12/31 07:40:24;;;;;;;1.80;1.70;;;20.00;74.80;;;;;;5116845;28;20439;-79
2021/12/31 07:42:53;;;;;;;1.70;1.70;;;20.00;74.70;;;;;;5116594;28;20431;-79
2021/12/31 07:45:21;;;;;;;2.17;2.00;;;20.00;74.80;;;;;;5116628;28;20455;-79
2021/12/31 07:47:49;;;;;;;2.70;1.90;;;20.00;74.70;;;;;;5116904;28;20458;-79
2021/12/31 07:50:17;;;;;;;3.43;2.10;;;20.00;75.30;;;;;;5116693;28;20447;-79
2021/12/31 07:52:46;;;;;;;2.20;1.70;;;20.00;74.70;;;;;;5110882;28;20441;-79
2021/12/31 07:55:14;;;;;;;2.00;1.80;;;20.00;74.70;;;;;;5117100;28;20512;-79
2021/12/31 07:57:42;;;;;;;2.03;1.90;;;20.00;74.70;;;;;;5111742;28;20428;-79
2021/12/31 08:00:14;;;;;;;2.07;1.97;;;20.00;74.60;;;;;;5096750;28;20439;-79
2021/12/31 08:02:43;;;;;;;2.13;2.03;;;20.10;74.50;;;;;;5096933;28;20402;-79
2021/12/31 08:05:11;;;;;;;1.93;1.83;;;20.00;74.50;;;;;;5095770;28;20488;-79
2021/12/31 08:07:39;;;;;;;2.60;1.80;;;20.10;74.50;;;;;;5101257;28;20470;-79
2021/12/31 08:10:08;;;;;;;2.07;1.90;;;20.00;74.40;;;;;;5105376;28;20503;-79
2021/12/31 08:12:53;;;;;;;1.90;1.80;;;20.00;74.30;;;;;;5096766;28;20452;-79
2021/12/31 08:15:24;;;;;;;2.37;1.50;;;20.00;74.30;;;;;;5097666;28;20453;-79
2021/12/31 08:17:54;;;;;;;1.73;1.63;;;20.00;74.30;;;;;;5114602;28;20428;-79
2021/12/31 08:20:24;;;;;;;2.40;1.70;;;20.00;74.20;;;;;;5117184;28;20470;-79
2021/12/31 08:22:53;;;;;;;2.70;2.03;;;20.10;74.30;;;;;;5119401;28;20420;-79
2021/12/31 08:25:21;;;;;;;1.70;1.60;;;20.10;74.20;;;;;;5117823;28;20486;-79
2021/12/31 08:27:48;;;;;;;3.00;1.83;;;20.10;74.20;;;;;;5096077;28;20516;-79
2021/12/31 08:30:16;;;;;;;1.83;1.73;;;20.10;74.20;;;;;;5096181;28;20499;-80
2021/12/31 08:32:46;;;;;;;2.10;2.00;;;20.10;74.20;;;;;;5095142;28;20441;-78
2021/12/31 08:35:14;;;;;;;1.70;1.60;;;20.10;74.10;;;;;;5095241;28;20474;-81
2021/12/31 08:37:42;;;;;;;1.90;1.80;;;20.10;74.20;;;;;;5107611;28;20504;-80
2021/12/31 08:40:11;;;;;;;2.53;2.10;;;20.10;74.10;;;;;;5103346;28;20435;-78
2021/12/31 08:42:40;;;;;;;1.70;1.40;;;20.10;74.10;;;;;;5105883;28;21014;-77
2021/12/31 08:45:08;;;;;;;1.60;1.50;;;20.10;74.20;;;;;;5094436;28;20479;-78
2021/12/31 08:47:36;;;;;;;3.00;1.87;;;20.10;73.90;;;;;;5094540;28;20441;-78
2021/12/31 08:50:06;;;;;;;1.90;1.80;;;20.20;74.10;;;;;;5111476;28;20535;-80
2021/12/31 08:52:35;;;;;;;1.80;1.70;;;20.10;73.80;;;;;;5103480;28;20495;-79
2021/12/31 08:55:03;;;;;;;2.03;1.93;;;20.10;73.90;;;;;;5114057;28;20843;-79
2021/12/31 08:57:31;;;;;;;1.90;1.80;;;20.10;73.90;;;;;;5115422;28;20503;-79
2021/12/31 08:59:59;;;;;;;2.20;2.10;;;20.10;73.80;;;;;;5114476;28;20463;-79
2021/12/31 09:02:27;;;;;;;1.90;1.70;;;20.10;73.90;;;;;;5111008;28;20519;-79
2021/12/31 09:04:55;;;;;;;1.60;1.50;;;20.10;73.80;;;;;;5116593;28;20478;-79
2021/12/31 09:07:26;;;;;;;1.73;1.57;;;20.10;73.70;;;;;;5116427;28;20436;-79
2021/12/31 09:09:54;;;;;;;1.70;1.60;;;20.10;73.60;;;;;;5116469;28;20462;-79
2021/12/31 09:12:22;;;;;;;3.60;1.70;;;20.10;73.70;;;;;;5116065;28;20514;-79
2021/12/31 09:14:50;;;;;;;2.20;2.10;;;20.10;73.60;;;;;;5115390;28;20476;-79
2021/12/31 09:17:18;;;;;;;1.73;1.63;;;20.20;73.80;;;;;;5115446;28;20519;-79
2021/12/31 09:19:46;;;;;;;1.73;1.63;;;20.20;73.80;;;;;;5116109;28;20506;-79
2021/12/31 09:22:14;;;;;;;3.13;2.57;;;20.20;73.50;;;;;;5116178;28;20464;-79
2021/12/31 09:24:43;;;;;;;2.60;2.23;;;20.20;73.60;;;;;;5115665;28;20625;-79
2021/12/31 09:27:11;;;;;;;1.80;1.70;;;20.20;73.50;;;;;;5117050;28;20428;-79
2021/12/31 09:29:39;;;;;;;2.30;1.93;;;20.20;73.50;;;;;;5114809;28;20440;-79
2021/12/31 09:32:08;;;;;;;2.17;1.80;;;20.20;73.50;;;;;;5117652;28;20504;-79
2021/12/31 09:34:36;;;;;;;1.77;1.67;;;20.20;73.50;;;;;;5119495;28;20487;-79
2021/12/31 09:37:04;;;;;;;1.60;1.50;;;20.20;73.40;;;;;;5119759;28;20479;-79
2021/12/31 09:39:33;;;;;;;1.63;1.53;;;20.20;73.50;;;;;;5121370;28;20522;-83
2021/12/31 09:42:03;;;;;;;2.33;1.70;;;20.20;73.50;;;;;;5115886;28;20452;-81
2021/12/31 09:44:31;;;;;;;1.80;1.70;;;20.20;73.40;;;;;;5112597;28;20520;-81
2021/12/31 09:46:59;;;;;;;1.73;1.70;;;20.20;73.50;;;;;;5121961;28;20460;-81
2021/12/31 09:49:27;;;;;;;1.90;1.70;;;20.20;73.50;;;;;;5121451;28;20467;-82
2021/12/31 09:51:55;;;;;;;2.03;1.93;;;20.20;73.40;;;;;;5120996;28;20448;-82
2021/12/31 09:54:23;;;;;;;1.67;1.57;;;20.20;73.50;;;;;;5115989;28;20474;-82
2021/12/31 09:56:52;;;;;;;1.90;1.80;;;20.20;73.60;;;;;;5121476;28;20432;-81
2021/12/31 09:59:23;;;;;;;1.57;1.47;;;20.30;73.60;;;;;;5120910;28;20398;-81
2021/12/31 10:01:52;;;;;;;2.20;1.60;;;20.30;73.40;;;;;;5100909;28;20429;-81
2021/12/31 10:04:22;;;;;;;2.00;1.83;;;20.20;73.40;;;;;;5103841;28;20483;-81
2021/12/31 10:07:10;;;;;;;1.70;1.60;;;20.20;73.30;;;;;;5114114;28;20439;-81
2021/12/31 10:09:40;;;;;;;1.90;1.80;;;20.20;73.30;;;;;;5105691;28;20452;-81
2021/12/31 10:12:13;;;;;;;3.37;1.53;;;20.20;73.40;;;;;;5119580;28;20416;-81
2021/12/31 10:14:42;;;;;;;2.00;1.80;;;20.20;73.40;;;;;;5112166;28;20495;-81
2021/12/31 10:17:10;;;;;;;2.10;1.90;;;20.30;73.50;;;;;;5120927;28;20475;-81
2021/12/31 10:19:38;;;;;;;2.20;2.00;;;20.20;73.40;;;;;;5103302;28;20440;-80
2021/12/31 10:22:07;;;;;;;2.70;1.70;;;20.20;73.30;;;;;;5115463;28;20468;-81
2021/12/31 10:24:36;;;;;;;3.83;1.93;;;20.20;73.40;;;;;;5110639;28;20526;-81
2021/12/31 10:27:17;;;;;;;4.67;3.00;;;20.20;73.30;;;;;;5121596;28;20535;-83
2021/12/31 10:29:53;;;;;;;7.60;3.07;;;19.50;69.90;;;;;;5124273;28;20433;-83
2021/12/31 10:32:21;;;;;;;4.23;3.00;;;18.20;74.70;;;;;;5124750;28;20431;-82
2021/12/31 10:34:49;;;;;;;5.20;3.47;;;17.50;76.30;;;;;;5123647;28;20483;-83
2021/12/31 10:37:20;;;;;;;6.17;3.23;;;17.10;78.00;;;;;;5124043;28;20443;-84
2021/12/31 10:39:55;;;;;;;3.27;3.00;;;16.70;80.00;;;;;;5124106;28;20432;-83
2021/12/31 10:42:28;;;;;;;4.60;3.90;;;16.30;82.80;;;;;;5123497;28;20514;-83
2021/12/31 10:44:58;;;;;;;10.17;3.80;;;16.60;83.70;;;;;;5121226;28;20483;-82
2021/12/31 10:47:30;;;;;;;7.53;3.90;;;16.50;82.60;;;;;;5124681;28;20435;-83
2021/12/31 10:50:12;;;;;;;6.90;3.93;;;16.30;84.30;;;;;;5126056;28;20428;-83
2021/12/31 10:52:45;;;;;;;8.97;3.73;;;16.50;85.10;;;;;;5124746;28;20505;-83
2021/12/31 10:55:21;;;;;;;8.70;4.10;;;16.00;85.50;;;;;;5125289;28;20472;-83
2021/12/31 10:57:50;;;;;;;9.17;3.60;;;15.90;87.90;;;;;;5125227;28;20451;-83
2021/12/31 11:00:19;;;;;;;5.50;4.70;;;16.10;88.40;;;;;;5121023;28;20483;-82
2021/12/31 11:02:50;;;;;;;6.10;3.80;;;16.00;88.10;;;;;;5118814;28;20447;-82
2021/12/31 11:05:20;;;;;;;5.20;3.63;;;16.00;88.70;;;;;;5119360;28;20476;-82
2021/12/31 11:07:48;;;;;;;5.77;3.63;;;15.90;89.60;;;;;;5120642;28;20527;-83
2021/12/31 11:10:33;;;;;;;6.03;3.57;;;15.80;90.20;;;;;;5120941;28;20405;-82
2021/12/31 11:13:03;;;;;;;7.93;3.90;;;15.60;90.90;;;;;;5122514;28;20501;-83
2021/12/31 11:15:33;;;;;;;5.13;3.63;;;15.90;91.10;;;;;;5119650;28;20476;-82
2021/12/31 11:18:01;;;;;;;6.93;4.60;;;15.90;90.30;;;;;;5119232;28;21291;-82
2021/12/31 11:20:29;;;;;;;4.10;3.70;;;15.60;91.10;;;;;;5119381;28;20455;-82
2021/12/31 11:22:57;;;;;;;9.83;5.10;;;15.70;91.90;;;;;;5119125;28;20481;-83
2021/12/31 11:25:50;;;;;;;6.00;3.70;;;15.60;91.90;;;;;;5119319;28;20479;-83
2021/12/31 11:28:27;;;;;;;7.70;3.77;;;15.60;92.10;;;;;;5118339;28;20416;-83
2021/12/31 11:34:13;;;;;;;5.33;3.63;;;15.40;92.20;;;;;;5109031;28;20476;-83
2021/12/31 11:36:41;;;;;;;5.30;3.73;;;15.30;93.40;;;;;;5114702;28;20502;-83
2021/12/31 11:39:15;;;;;;;5.90;4.50;;;15.30;93.60;;;;;;5118819;28;20790;-83
2021/12/31 11:41:50;;;;;;;4.40;3.90;;;15.40;93.30;;;;;;5118788;28;20416;-81
2021/12/31 11:44:19;;;;;;;6.47;4.20;;;15.30;94.50;;;;;;5122421;28;21073;-82
2021/12/31 11:46:49;;;;;;;6.53;3.63;;;16.10;95.10;;;;;;5121279;28;20475;-82
2021/12/31 11:49:20;;;;;;;4.23;3.53;;;16.90;93.20;;;;;;5118432;28;20514;-81
2021/12/31 11:52:04;;;;;;;4.63;2.90;;;17.60;91.00;;;;;;5115324;28;20473;-82
2021/12/31 11:54:33;;;;;;;7.30;3.33;;;18.00;88.40;;;;;;5113531;28;20482;-86
2021/12/31 11:57:02;;;;;;;31.13;4.70;;;18.40;86.60;;;;;;5110807;28;20531;-81
2021/12/31 11:59:46;;;;;;;17.67;4.17;;;18.90;88.40;;;;;;5114597;28;20543;-81
2021/12/31 12:02:18;;;;;;;23.63;5.30;;;19.50;89.50;;;;;;5111082;28;20459;-80
2021/12/31 12:05:02;;;;;;;22.17;5.53;;;20.00;88.90;;;;;;5105737;28;20456;-81
2021/12/31 12:07:35;;;;;;;23.47;5.00;;;20.40;89.50;;;;;;5107381;28;20500;-81
2021/12/31 12:10:19;;;;;;;20.37;4.63;;;20.70;90.10;;;;;;5118052;28;20452;-82
2021/12/31 12:12:50;;;;;;;20.70;5.00;;;20.90;90.50;;;;;;5108171;28;20579;-80
2021/12/31 12:15:34;;;;;;;23.40;5.20;;;21.00;90.80;;;;;;5116683;28;20535;-81
2021/12/31 12:18:05;;;;;;;35.53;5.20;;;21.20;91.00;;;;;;5116228;28;20503;-82
2021/12/31 12:20:34;;;;;;;19.47;4.43;;;21.30;91.20;;;;;;5116001;28;20432;-83
2021/12/31 12:23:02;;;;;;;22.67;4.63;;;21.40;91.30;;;;;;5119162;28;20471;-84
2021/12/31 12:25:31;;;;;;;17.87;4.83;;;21.50;91.50;;;;;;5117541;28;20527;-83
2021/12/31 12:28:01;;;;;;;16.80;4.63;;;21.50;91.40;;;;;;5118674;28;20530;-79
2021/12/31 12:30:29;;;;;;;9.20;3.97;;;21.50;88.80;;;;;;5113917;28;20405;-81
2021/12/31 12:33:08;;;;;;;8.83;5.00;;;21.10;81.20;;;;;;5114393;28;20472;-79
2021/12/31 12:35:38;;;;;;;9.00;4.60;;;20.60;82.10;;;;;;5115731;28;20527;-80
2021/12/31 12:38:07;;;;;;;9.30;4.00;;;20.30;79.50;;;;;;5115543;28;20484;-81
2021/12/31 12:40:37;;;;;;;15.00;5.20;;;20.10;81.30;;;;;;5115716;28;20535;-81
2021/12/31 12:43:05;;;;;;;9.03;4.53;;;20.00;80.30;;;;;;5114376;28;20435;-79
2021/12/31 12:45:34;;;;;;;5.60;3.70;;;20.10;83.50;;;;;;5117114;28;20502;-81
2021/12/31 12:48:02;;;;;;;15.43;4.43;;;20.40;83.80;;;;;;5118547;28;20432;-83
2021/12/31 12:50:30;;;;;;;9.63;3.90;;;20.60;84.30;;;;;;5114807;28;20540;-82
2021/12/31 12:52:59;;;;;;;8.67;4.17;;;20.80;84.80;;;;;;5115434;28;20515;-81
2021/12/31 12:55:27;;;;;;;12.50;4.13;;;20.90;85.30;;;;;;5118113;28;20452;-83
2021/12/31 12:57:56;;;;;;;7.90;3.70;;;21.00;85.60;;;;;;5116757;28;20433;-82
2021/12/31 13:00:34;;;;;;;25.60;4.50;;;21.10;86.00;;;;;;5119028;28;20468;-82
2021/12/31 13:03:07;;;;;;;15.33;4.33;;;21.20;86.40;;;;;;5123723;28;20496;-83